עמוד ראשי
METAR-TAF:

METAR-TAF

שדות תעופה :

ח'ארג, איראן

קו רוחב: 29-15-34N, קו אורך: 50-19-24E, גובה: 5מטר

תצפית מזג אוויר נוכחית

הדו"ח נערך לפני 34דקות, בשעה 04:00 UTC
רוח רגועה
טמפרטורת 36 צלסיוס
לחות 57%
לחץ 996 hPa
ראות: 4000מטר
אובך,

METAR: OIBQ 200400Z 00000KT 4000 HZ NSC 36/26 Q0996

זמן: 09:04 (04:34 UTC)


TAF: חסר

תצפיות ותחזיות מזג אוויר לגבי יותר מ- 4,000 שדות תעופה ברחבי העולם. דוחות METAR ו- TAF.

התחנות הזמינות מסומנות בנקודות צהובות ואדומות על גבי המפה.

העבר את העכבר לנקודה הצבעונית על מנת לראות את שם התחנה.

לאחר מכן, לחץ כדי לראות את תוכן ואת תחזיות מזג האוויר.

כדי לשנות את המפה: לחץ על הכפתורים הירוקים עם הפלוס השחור כדי להתקרב; על הכפתור הירוק עם המקף כדי להתרחק; או בחיצים הירוקים למפות סמוכות.


METAR-TAF: